< < Back
Terminal Aerodrome Forecast


Current Version              Previous Versions:   1  2  3  4  5  6  7  8  9  

Terminal Aerodrome Forecast

637
FTUS42 KMLB 272300
TAFDAB
TAF
KDAB 272327Z 2800/2824 26011KT P6SM SKC
     FM280200 33008KT P6SM SKC
     FM281500 35012KT P6SM SKC=



Latest METAR

667
SAUS80 KWBC 282200 RRB
MTRDAB
METAR KDAB 282153Z 02014KT 10SM FEW030 FEW250 12/04 A3024 RMK AO2 SLP240
T01220039


USA.gov is the U.S. government's official web portal to all federal, state and local government web resources and services.